createdAt,value
2022-12-19T00:01:37.881Z,-2.12
2022-12-19T00:04:09.271Z,-2.14
2022-12-19T00:06:43.636Z,-2.18
2022-12-19T00:09:11.144Z,-2.21
2022-12-19T00:11:38.794Z,-2.24
2022-12-19T00:14:06.484Z,-2.28
2022-12-19T00:16:33.605Z,-2.32
2022-12-19T00:19:01.431Z,-2.38
2022-12-19T00:21:34.672Z,-2.37
2022-12-19T00:24:03.408Z,-2.45
2022-12-19T00:26:34.013Z,-2.41
2022-12-19T00:29:12.534Z,-2.42
2022-12-19T00:31:40.837Z,-2.44
2022-12-19T00:34:07.734Z,-2.51
2022-12-19T00:36:35.071Z,-2.50
2022-12-19T00:39:08.362Z,-2.51
2022-12-19T00:41:37.338Z,-2.54
2022-12-19T00:44:09.849Z,-2.57
2022-12-19T00:46:36.909Z,-2.62
2022-12-19T00:49:05.250Z,-2.68
2022-12-19T00:51:34.417Z,-2.72
2022-12-19T00:54:02.191Z,-2.75
2022-12-19T00:56:37.090Z,-2.78
2022-12-19T00:59:04.216Z,-2.85
2022-12-19T01:01:34.452Z,-2.82
2022-12-19T01:04:27.611Z,-2.81
2022-12-19T01:06:49.949Z,-2.85
2022-12-19T01:09:17.445Z,-2.87
2022-12-19T01:12:03.011Z,-2.90
2022-12-19T01:14:29.803Z,-2.97
2022-12-19T01:16:56.400Z,-2.96
2022-12-19T01:19:23.487Z,-3.01
2022-12-19T01:21:50.198Z,-3.04
2022-12-19T01:24:19.025Z,-3.07
2022-12-19T01:26:46.403Z,-3.09
2022-12-19T01:29:13.108Z,-3.10
2022-12-19T01:31:39.820Z,-3.16
2022-12-19T01:34:06.887Z,-3.19
2022-12-19T01:36:39.577Z,-3.22
2022-12-19T01:39:07.144Z,-3.21
2022-12-19T01:41:33.774Z,-3.23
2022-12-19T01:44:02.558Z,-3.25
2022-12-19T01:46:38.496Z,-3.30
2022-12-19T01:49:10.835Z,-3.34
2022-12-19T01:51:47.336Z,-3.36
2022-12-19T01:54:19.833Z,-3.40
2022-12-19T01:56:50.760Z,-3.49
2022-12-19T01:59:25.005Z,-3.51
2022-12-19T02:01:58.647Z,-3.53
2022-12-19T02:04:28.919Z,-3.56
2022-12-19T02:07:09.378Z,-3.57
2022-12-19T02:09:45.002Z,-3.61
2022-12-19T02:12:11.920Z,-3.62
2022-12-19T02:14:39.328Z,-3.66
2022-12-19T02:17:40.147Z,-3.67
2022-12-19T02:20:15.905Z,-3.72
2022-12-19T02:22:42.736Z,-3.75
2022-12-19T02:25:18.093Z,-3.77
2022-12-19T02:27:56.272Z,-3.77
2022-12-19T02:30:32.019Z,-3.78
2022-12-19T02:33:17.810Z,-3.81
2022-12-19T02:35:51.320Z,-3.87
2022-12-19T02:38:47.795Z,-3.86
2022-12-19T02:41:28.628Z,-3.89
2022-12-19T02:43:58.778Z,-3.90
2022-12-19T02:46:26.960Z,-3.92
2022-12-19T02:48:54.358Z,-3.93
2022-12-19T02:51:21.271Z,-3.95
2022-12-19T02:53:48.496Z,-3.97
2022-12-19T02:56:36.748Z,-3.98
2022-12-19T02:59:29.215Z,-4.02
2022-12-19T03:02:03.345Z,-4.08
2022-12-19T03:05:07.488Z,-4.05
2022-12-19T03:07:54.508Z,-4.06
2022-12-19T03:10:26.338Z,-4.05
2022-12-19T03:13:16.605Z,-4.07
2022-12-19T03:15:44.939Z,-4.08
2022-12-19T03:18:12.032Z,-4.12
2022-12-19T03:20:52.369Z,-4.09
2022-12-19T03:23:19.925Z,-4.11
2022-12-19T03:25:50.350Z,-4.13
2022-12-19T03:28:24.403Z,-4.13
2022-12-19T03:30:51.755Z,-4.09
2022-12-19T03:33:20.827Z,-4.16
2022-12-19T03:35:50.677Z,-4.13
2022-12-19T03:38:20.406Z,-4.12
2022-12-19T03:40:48.169Z,-4.13
2022-12-19T03:43:17.484Z,-4.10
2022-12-19T03:46:01.144Z,-4.13
2022-12-19T03:48:36.625Z,-4.07
2022-12-19T03:51:18.550Z,-4.05
2022-12-19T03:53:49.837Z,-4.05
2022-12-19T03:56:27.315Z,-4.04
2022-12-19T03:59:02.317Z,-4.04
2022-12-19T04:01:34.074Z,-4.04
2022-12-19T04:04:03.725Z,-4.07
2022-12-19T04:06:33.212Z,-4.13
2022-12-19T04:09:00.820Z,-4.14
2022-12-19T04:11:34.776Z,-4.15
2022-12-19T04:14:03.964Z,-4.13
2022-12-19T04:16:46.011Z,-4.14
2022-12-19T04:19:21.009Z,-4.18
2022-12-19T04:21:56.804Z,-4.28
2022-12-19T04:24:28.571Z,-4.29
2022-12-19T04:26:57.812Z,-4.33
2022-12-19T04:29:26.829Z,-4.39
2022-12-19T04:31:53.474Z,-4.36
2022-12-19T04:34:21.550Z,-4.37
2022-12-19T04:36:50.666Z,-4.38
2022-12-19T04:39:17.355Z,-4.35
2022-12-19T04:41:44.348Z,-4.40
2022-12-19T04:44:11.085Z,-4.47
2022-12-19T04:46:37.719Z,-4.52
2022-12-19T04:49:04.695Z,-4.54
2022-12-19T04:51:31.625Z,-4.54
2022-12-19T04:53:58.505Z,-4.56
2022-12-19T04:56:25.274Z,-4.57
2022-12-19T04:59:00.184Z,-4.63
2022-12-19T05:01:27.469Z,-4.61
2022-12-19T05:03:56.614Z,-4.64
2022-12-19T05:06:25.341Z,-4.67
2022-12-19T05:08:52.681Z,-4.76
2022-12-19T05:11:20.136Z,-4.73
2022-12-19T05:13:47.356Z,-4.79
2022-12-19T05:16:16.131Z,-4.81
2022-12-19T05:18:43.626Z,-4.82
2022-12-19T05:21:11.137Z,-4.86
2022-12-19T05:23:38.624Z,-4.88
2022-12-19T05:26:06.528Z,-4.89
2022-12-19T05:28:34.665Z,-4.91
2022-12-19T05:31:07.418Z,-4.94
2022-12-19T05:33:34.719Z,-4.97
2022-12-19T05:36:01.445Z,-5.03
2022-12-19T05:38:29.101Z,-4.98
2022-12-19T05:40:55.843Z,-4.99
2022-12-19T05:43:22.567Z,-4.99
2022-12-19T05:45:49.563Z,-4.96
2022-12-19T05:48:16.172Z,-4.93
2022-12-19T05:50:47.563Z,-4.90
2022-12-19T05:53:14.457Z,-4.89
2022-12-19T05:55:41.355Z,-4.81
2022-12-19T05:58:07.907Z,-4.80
2022-12-19T06:00:34.732Z,-4.76
2022-12-19T06:03:01.362Z,-4.75
2022-12-19T06:05:27.980Z,-4.72
2022-12-19T06:07:55.063Z,-4.68
2022-12-19T06:10:21.666Z,-4.67
2022-12-19T06:12:48.214Z,-4.65
2022-12-19T06:15:15.203Z,-4.67
2022-12-19T06:17:41.807Z,-4.69
2022-12-19T06:20:08.974Z,-4.63
2022-12-19T06:22:35.898Z,-4.63
2022-12-19T06:25:02.490Z,-4.61
2022-12-19T06:27:29.080Z,-4.56
2022-12-19T06:29:56.666Z,-4.51
2022-12-19T06:32:23.247Z,-4.45
2022-12-19T06:35:05.273Z,-4.40
2022-12-19T06:37:32.315Z,-4.35
2022-12-19T06:39:59.152Z,-4.33
2022-12-19T06:42:25.818Z,-4.33
2022-12-19T06:44:54.363Z,-4.31
2022-12-19T06:47:23.901Z,-4.27
2022-12-19T06:49:50.511Z,-4.25
2022-12-19T06:52:18.435Z,-4.19
2022-12-19T06:54:47.074Z,-4.17
2022-12-19T06:57:13.618Z,-4.18
2022-12-19T06:59:41.011Z,-4.19
2022-12-19T07:02:19.924Z,-4.17
2022-12-19T07:04:57.983Z,-4.17
2022-12-19T07:07:28.482Z,-4.25
2022-12-19T07:09:55.294Z,-4.27
2022-12-19T07:12:22.076Z,-4.25
2022-12-19T07:14:53.129Z,-4.26
2022-12-19T07:17:22.109Z,-4.25
2022-12-19T07:19:52.031Z,-4.27
2022-12-19T07:22:18.848Z,-4.26
2022-12-19T07:24:45.749Z,-4.24
2022-12-19T07:27:13.380Z,-4.23
2022-12-19T07:29:40.172Z,-4.25
2022-12-19T07:32:06.965Z,-4.30
2022-12-19T07:34:33.719Z,-4.27
2022-12-19T07:37:00.598Z,-4.24
2022-12-19T07:39:27.226Z,-4.24
2022-12-19T07:41:53.958Z,-4.20
2022-12-19T07:44:20.762Z,-4.19
2022-12-19T07:46:48.035Z,-4.17
2022-12-19T07:49:19.568Z,-4.15
2022-12-19T07:51:49.245Z,-4.11
2022-12-19T07:54:16.671Z,-4.11
2022-12-19T07:56:43.257Z,-4.09
2022-12-19T07:59:10.295Z,-4.09
2022-12-19T08:01:37.049Z,-4.08
2022-12-19T08:04:03.771Z,-4.09
2022-12-19T08:06:30.977Z,-4.10
2022-12-19T08:08:57.651Z,-4.05
2022-12-19T08:11:27.576Z,-3.98
2022-12-19T08:13:54.507Z,-3.92
2022-12-19T08:16:21.877Z,-3.84
2022-12-19T08:18:48.618Z,-3.78
2022-12-19T08:21:15.387Z,-3.73
2022-12-19T08:23:42.119Z,-3.69
2022-12-19T08:26:12.372Z,-3.63
2022-12-19T08:28:39.078Z,-3.60
2022-12-19T08:31:17.866Z,-3.58
2022-12-19T08:33:45.083Z,-3.45
2022-12-19T08:36:14.551Z,-3.35
2022-12-19T08:38:41.331Z,-3.26
2022-12-19T08:41:09.050Z,-3.17
2022-12-19T08:43:36.028Z,-3.08
2022-12-19T08:46:02.883Z,-3.00
2022-12-19T08:48:30.998Z,-2.90
2022-12-19T08:51:00.060Z,-2.82
2022-12-19T08:53:28.815Z,-2.74
2022-12-19T08:56:00.297Z,-2.69
2022-12-19T08:58:28.939Z,-2.68
2022-12-19T09:01:05.378Z,-2.64
2022-12-19T09:03:56.200Z,-2.59
2022-12-19T09:06:20.431Z,-2.54
2022-12-19T09:08:47.355Z,-2.47
2022-12-19T09:11:16.603Z,-2.38
2022-12-19T09:13:45.166Z,-2.30
2022-12-19T09:16:14.500Z,-2.28
2022-12-19T09:18:48.071Z,-2.13
2022-12-19T09:21:15.729Z,-2.09
2022-12-19T09:23:43.286Z,-2.11
2022-12-19T09:26:13.399Z,-2.07
2022-12-19T09:28:41.623Z,-2.01
2022-12-19T09:31:13.939Z,-1.91
2022-12-19T09:33:43.666Z,-1.79
2022-12-19T09:36:28.670Z,-1.66
2022-12-19T09:38:57.212Z,-1.56
2022-12-19T09:41:34.119Z,-1.43
2022-12-19T09:44:10.780Z,-1.29
2022-12-19T09:47:03.319Z,-1.14
2022-12-19T09:49:36.664Z,-1.04
2022-12-19T09:52:20.826Z,-0.91
2022-12-19T09:54:56.584Z,-0.83
2022-12-19T09:57:26.739Z,-0.73
2022-12-19T10:00:33.267Z,-0.56
2022-12-19T10:03:05.544Z,-0.46
2022-12-19T10:06:53.630Z,-0.40
2022-12-19T10:10:00.055Z,-0.31
2022-12-19T10:12:38.461Z,-0.11
2022-12-19T10:15:06.512Z,0.04
2022-12-19T10:17:52.812Z,0.15
2022-12-19T10:20:31.123Z,0.26
2022-12-19T10:23:32.027Z,0.35
2022-12-19T10:26:32.512Z,0.33
2022-12-19T10:29:07.174Z,0.30
2022-12-19T10:31:37.079Z,0.31
2022-12-19T10:34:24.471Z,0.39
2022-12-19T10:37:27.267Z,0.44
2022-12-19T10:40:05.588Z,0.47
2022-12-19T10:43:15.421Z,0.53
2022-12-19T10:45:54.110Z,0.53
2022-12-19T10:48:30.720Z,0.57
2022-12-19T10:50:58.043Z,0.55
2022-12-19T10:53:29.948Z,0.48
2022-12-19T10:56:13.151Z,0.50
2022-12-19T10:58:44.127Z,0.48
2022-12-19T11:01:14.523Z,0.46
2022-12-19T11:03:48.512Z,0.53
2022-12-19T11:06:48.945Z,0.60
2022-12-19T11:09:29.778Z,0.63
2022-12-19T11:16:10.278Z,0.71
2022-12-19T11:20:28.129Z,0.74
2022-12-19T11:25:24.863Z,0.82
2022-12-19T11:29:19.748Z,0.84
2022-12-19T11:29:33.478Z,0.84
2022-12-19T11:30:34.291Z,0.89
2022-12-19T11:32:42.943Z,1.00
2022-12-19T11:35:24.815Z,0.95
2022-12-19T11:37:57.953Z,1.00
2022-12-19T11:40:44.671Z,1.05
2022-12-19T11:43:44.444Z,1.06
2022-12-19T11:46:36.713Z,1.08
2022-12-19T11:49:31.320Z,1.13
2022-12-19T11:52:06.348Z,1.19
2022-12-19T11:55:08.275Z,1.28
2022-12-19T11:57:42.446Z,1.30
2022-12-19T12:00:17.763Z,1.38
2022-12-19T12:03:03.043Z,1.45
2022-12-19T12:05:39.963Z,1.49
2022-12-19T12:09:45.155Z,1.54
2022-12-19T12:18:20.335Z,1.59
2022-12-19T12:23:13.373Z,1.63
2022-12-19T12:30:52.361Z,1.70
2022-12-19T12:31:09.793Z,1.75
2022-12-19T12:31:23.085Z,1.73
2022-12-19T12:32:05.781Z,1.75
2022-12-19T12:35:08.606Z,1.77
2022-12-19T12:35:38.054Z,1.83
2022-12-19T12:39:18.050Z,1.92
2022-12-19T12:42:08.933Z,1.97
2022-12-19T12:44:45.247Z,1.97
2022-12-19T12:47:24.830Z,1.96
2022-12-19T12:50:02.062Z,1.98
2022-12-19T12:52:37.158Z,1.98
2022-12-19T12:55:25.160Z,1.98
2022-12-19T12:57:52.142Z,1.94
2022-12-19T13:00:25.817Z,1.87
2022-12-19T13:03:19.394Z,1.82
2022-12-19T13:05:46.306Z,1.80
2022-12-19T13:08:25.885Z,1.80
2022-12-19T13:10:59.236Z,1.78
2022-12-19T13:13:56.308Z,1.77
2022-12-19T13:16:45.302Z,1.77
2022-12-19T13:19:25.791Z,1.79
2022-12-19T13:22:03.993Z,1.77
2022-12-19T13:24:41.865Z,1.73
2022-12-19T13:27:20.676Z,1.65
2022-12-19T13:30:00.133Z,1.61
2022-12-19T13:32:31.963Z,1.56
2022-12-19T13:35:31.527Z,1.51
2022-12-19T13:39:54.163Z,1.53
2022-12-19T13:41:25.955Z,1.55
2022-12-19T13:43:59.707Z,1.52
2022-12-19T13:46:35.493Z,1.53
2022-12-19T13:49:17.825Z,1.50
2022-12-19T13:51:52.087Z,1.45
2022-12-19T13:54:22.956Z,1.35
2022-12-19T13:56:51.135Z,1.38
2022-12-19T13:59:19.555Z,1.37
2022-12-19T14:01:46.524Z,1.38
2022-12-19T14:04:30.566Z,1.37
2022-12-19T14:07:36.024Z,1.37
2022-12-19T14:11:43.142Z,1.35
2022-12-19T14:14:01.450Z,1.29
2022-12-19T14:16:01.050Z,1.23
2022-12-19T14:18:42.827Z,1.13
2022-12-19T14:22:11.290Z,1.10
2022-12-19T14:24:09.529Z,1.06
2022-12-19T14:28:19.305Z,0.97
2022-12-19T14:30:28.858Z,0.92
2022-12-19T14:33:44.377Z,0.88
2022-12-19T14:36:10.853Z,0.83
2022-12-19T14:39:25.720Z,0.79
2022-12-19T14:41:09.299Z,0.73
2022-12-19T14:43:56.905Z,0.69
2022-12-19T14:54:04.030Z,0.57
2022-12-19T14:54:13.171Z,0.61
2022-12-19T14:54:29.350Z,0.51
2022-12-19T14:56:11.393Z,0.42
2022-12-19T14:58:52.270Z,0.32
2022-12-19T15:01:39.591Z,0.22
2022-12-19T15:04:53.511Z,0.14
2022-12-19T15:07:13.858Z,0.08
2022-12-19T15:11:06.715Z,0.04
2022-12-19T15:14:54.587Z,-0.02
2022-12-19T15:16:07.581Z,-0.13
2022-12-19T15:18:34.590Z,-0.21
2022-12-19T15:21:04.183Z,-0.27
2022-12-19T15:23:31.713Z,-0.32
2022-12-19T15:26:07.700Z,-0.39
2022-12-19T15:28:43.252Z,-0.46
2022-12-19T15:31:32.380Z,-0.53
2022-12-19T15:34:33.079Z,-0.59
2022-12-19T15:36:46.233Z,-0.61
2022-12-19T15:39:15.139Z,-0.67
2022-12-19T15:41:42.681Z,-0.78
2022-12-19T15:44:32.935Z,-0.80
2022-12-19T15:47:01.062Z,-0.89
2022-12-19T15:49:27.805Z,-0.93
2022-12-19T15:51:54.682Z,-0.97
2022-12-19T15:54:47.827Z,-1.02
2022-12-19T15:57:30.690Z,-1.09
2022-12-19T16:00:00.978Z,-1.17
2022-12-19T16:02:56.321Z,-1.23
2022-12-19T16:05:15.836Z,-1.34
2022-12-19T16:07:42.678Z,-1.36
2022-12-19T16:10:11.400Z,-1.38
2022-12-19T16:12:55.582Z,-1.46
2022-12-19T16:15:27.635Z,-1.55
2022-12-19T16:17:54.738Z,-1.58
2022-12-19T16:20:24.997Z,-1.63
2022-12-19T16:22:51.624Z,-1.67
2022-12-19T16:25:18.698Z,-1.71
2022-12-19T16:27:56.904Z,-1.75
2022-12-19T16:30:27.927Z,-1.81
2022-12-19T16:32:54.627Z,-1.89
2022-12-19T16:35:47.279Z,-1.91
2022-12-19T16:38:10.880Z,-1.97
2022-12-19T16:40:37.808Z,-2.00
2022-12-19T16:43:07.853Z,-2.05
2022-12-19T16:45:34.652Z,-2.04
2022-12-19T16:48:01.543Z,-2.10
2022-12-19T16:50:30.968Z,-2.15
2022-12-19T16:52:58.005Z,-2.20
2022-12-19T16:55:26.494Z,-2.24
2022-12-19T16:57:56.269Z,-2.38
2022-12-19T17:00:24.534Z,-2.32
2022-12-19T17:02:57.633Z,-2.39
2022-12-19T17:05:29.456Z,-2.42
2022-12-19T17:07:56.757Z,-2.46
2022-12-19T17:10:30.423Z,-2.48
2022-12-19T17:12:58.696Z,-2.50
2022-12-19T17:15:27.543Z,-2.54
2022-12-19T17:17:58.354Z,-2.57
2022-12-19T17:20:28.784Z,-2.56
2022-12-19T17:22:55.431Z,-2.59
2022-12-19T17:25:27.395Z,-2.66
2022-12-19T17:27:55.780Z,-2.71
2022-12-19T17:30:22.506Z,-2.83
2022-12-19T17:32:53.856Z,-2.79
2022-12-19T17:35:27.719Z,-2.82
2022-12-19T17:37:55.174Z,-2.80
2022-12-19T17:40:27.478Z,-2.86
2022-12-19T17:42:54.758Z,-2.91
2022-12-19T17:45:23.325Z,-2.95
2022-12-19T17:47:51.603Z,-2.98
2022-12-19T17:50:27.025Z,-3.00
2022-12-19T17:52:54.905Z,-3.05
2022-12-19T17:55:28.036Z,-3.09
2022-12-19T17:57:55.661Z,-3.18
2022-12-19T18:00:30.436Z,-3.18
2022-12-19T18:03:02.345Z,-3.23
2022-12-19T18:05:33.641Z,-3.22
2022-12-19T18:08:00.440Z,-3.31
2022-12-19T18:10:29.388Z,-3.32
2022-12-19T18:12:56.805Z,-3.36
2022-12-19T18:15:24.293Z,-3.35
2022-12-19T18:17:53.825Z,-3.37
2022-12-19T18:20:21.209Z,-3.41
2022-12-19T18:22:50.794Z,-3.49
2022-12-19T18:25:23.161Z,-3.51
2022-12-19T18:27:50.265Z,-3.54
2022-12-19T18:30:18.022Z,-3.62
2022-12-19T18:32:48.004Z,-3.61
2022-12-19T18:35:23.301Z,-3.63
2022-12-19T18:37:51.703Z,-3.67
2022-12-19T18:40:29.287Z,-3.70
2022-12-19T18:42:58.103Z,-3.73
2022-12-19T18:45:37.697Z,-3.73
2022-12-19T18:48:18.478Z,-3.78
2022-12-19T18:50:45.054Z,-3.81
2022-12-19T18:53:13.705Z,-3.85
2022-12-19T18:55:40.892Z,-3.88
2022-12-19T18:58:07.481Z,-3.91
2022-12-19T19:00:35.602Z,-3.96
2022-12-19T19:03:05.899Z,-3.98
2022-12-19T19:05:35.641Z,-4.03
2022-12-19T19:08:20.001Z,-4.08
2022-12-19T19:10:47.497Z,-4.11
2022-12-19T19:13:16.524Z,-4.20
2022-12-19T19:15:51.571Z,-4.26
2022-12-19T19:18:24.388Z,-4.31
2022-12-19T19:21:00.515Z,-4.31
2022-12-19T19:23:41.320Z,-4.35
2022-12-19T19:26:08.175Z,-4.32
2022-12-19T19:28:37.290Z,-4.34
2022-12-19T19:31:09.005Z,-4.36
2022-12-19T19:33:40.659Z,-4.38
2022-12-19T19:36:13.113Z,-4.36
2022-12-19T19:38:43.067Z,-4.37
2022-12-19T19:41:09.791Z,-4.39
2022-12-19T19:43:37.664Z,-4.45
2022-12-19T19:46:04.920Z,-4.47
2022-12-19T19:48:31.788Z,-4.53
2022-12-19T19:50:58.446Z,-4.62
2022-12-19T19:53:25.553Z,-4.65
2022-12-19T19:56:01.021Z,-4.64
2022-12-19T19:58:29.180Z,-4.65
2022-12-19T20:00:56.906Z,-4.66
2022-12-19T20:03:24.584Z,-4.68
2022-12-19T20:05:59.737Z,-4.70
2022-12-19T20:08:26.694Z,-4.70
2022-12-19T20:10:57.671Z,-4.76
2022-12-19T20:13:25.049Z,-4.72
2022-12-19T20:15:52.326Z,-4.73
2022-12-19T20:18:19.182Z,-4.74
2022-12-19T20:20:48.587Z,-4.76
2022-12-19T20:23:15.223Z,-4.80
2022-12-19T20:25:43.178Z,-4.81
2022-12-19T20:28:10.099Z,-4.84
2022-12-19T20:30:37.852Z,-4.90
2022-12-19T20:33:04.573Z,-4.99
2022-12-19T20:35:31.806Z,-5.00
2022-12-19T20:37:58.443Z,-4.99
2022-12-19T20:40:25.180Z,-5.01
2022-12-19T20:42:56.158Z,-5.04
2022-12-19T20:45:22.819Z,-5.09
2022-12-19T20:47:49.477Z,-5.08
2022-12-19T20:50:16.623Z,-5.11
2022-12-19T20:52:43.307Z,-5.11
2022-12-19T20:55:10.464Z,-5.11
2022-12-19T20:57:37.166Z,-5.15
2022-12-19T21:00:05.754Z,-5.11
2022-12-19T21:02:52.560Z,-5.12
2022-12-19T21:05:20.812Z,-5.11
2022-12-19T21:07:47.939Z,-5.16
2022-12-19T21:10:14.644Z,-5.18
2022-12-19T21:12:47.368Z,-5.21
2022-12-19T21:15:14.753Z,-5.20
2022-12-19T21:17:41.457Z,-5.21
2022-12-19T21:20:12.837Z,-5.26
2022-12-19T21:22:39.573Z,-5.27
2022-12-19T21:25:06.600Z,-5.31
2022-12-19T21:27:34.517Z,-5.38
2022-12-19T21:30:01.113Z,-5.39
2022-12-19T21:32:27.916Z,-5.36
2022-12-19T21:34:55.067Z,-5.38
2022-12-19T21:37:24.192Z,-5.38
2022-12-19T21:39:50.818Z,-5.40
2022-12-19T21:42:17.763Z,-5.43
2022-12-19T21:44:44.775Z,-5.46
2022-12-19T21:47:11.479Z,-5.45
2022-12-19T21:49:42.764Z,-5.45
2022-12-19T21:52:10.155Z,-5.50
2022-12-19T21:54:36.853Z,-5.53
2022-12-19T21:57:03.952Z,-5.55
2022-12-19T21:59:30.630Z,-5.62
2022-12-19T22:01:58.221Z,-5.60
2022-12-19T22:04:27.697Z,-5.63
2022-12-19T22:06:54.339Z,-5.71
2022-12-19T22:09:25.424Z,-5.70
2022-12-19T22:11:52.617Z,-5.70
2022-12-19T22:14:19.293Z,-5.74
2022-12-19T22:16:46.008Z,-5.73
2022-12-19T22:19:16.778Z,-5.74
2022-12-19T22:21:44.854Z,-5.78
2022-12-19T22:24:13.341Z,-5.83
2022-12-19T22:26:40.718Z,-5.90
2022-12-19T22:29:09.783Z,-5.86
2022-12-19T22:31:37.526Z,-5.88
2022-12-19T22:34:07.226Z,-5.88
2022-12-19T22:36:36.882Z,-5.89
2022-12-19T22:39:06.793Z,-5.88
2022-12-19T22:41:39.734Z,-5.86
2022-12-19T22:44:07.532Z,-5.86
2022-12-19T22:46:37.547Z,-5.88
2022-12-19T22:49:06.962Z,-5.95
2022-12-19T22:51:35.309Z,-5.94
2022-12-19T22:54:02.352Z,-5.97
2022-12-19T22:56:31.098Z,-5.99
2022-12-19T22:59:01.603Z,-6.01
2022-12-19T23:01:34.921Z,-6.03
2022-12-19T23:04:03.557Z,-6.05
2022-12-19T23:06:32.688Z,-6.08
2022-12-19T23:08:59.814Z,-6.10
2022-12-19T23:11:30.774Z,-6.13
2022-12-19T23:13:57.490Z,-6.21
2022-12-19T23:16:24.357Z,-6.24
2022-12-19T23:18:51.279Z,-6.25
2022-12-19T23:21:20.718Z,-6.23
2022-12-19T23:23:49.697Z,-6.37
2022-12-19T23:26:25.421Z,-6.27
2022-12-19T23:28:58.124Z,-6.28
2022-12-19T23:31:25.738Z,-6.30
2022-12-19T23:33:52.712Z,-6.29
2022-12-19T23:36:32.599Z,-6.32
2022-12-19T23:39:06.768Z,-6.32
2022-12-19T23:41:33.796Z,-6.35
2022-12-19T23:44:00.520Z,-6.34
2022-12-19T23:46:27.750Z,-6.41
2022-12-19T23:48:54.591Z,-6.37
2022-12-19T23:51:25.197Z,-6.38
2022-12-19T23:53:53.020Z,-6.39
2022-12-19T23:56:22.305Z,-6.40
2022-12-19T23:58:48.909Z,-6.41
